Time;durP1;ratioP1;P1;durP2;ratioP2;P2;SDS_P1;SDS_P2;PMS_P1;PMS_P2;Temp;Humidity;BMP_temperature;BMP_pressure;BME280_temperature;BME280_humidity;BME280_pressure;Samples;Min_cycle;Max_cycle;Signal;HPM_P1;HPM_P2
2024/02/04 00:01:00;;;;;;;13.07;9.55;;;;;;;13.86;67.95;102268.94;4960709;28;123606;-80
2024/02/04 00:03:28;;;;;;;15.40;10.30;;;;;;;13.86;67.85;102268.94;4970965;28;125853;-80
2024/02/04 00:05:55;;;;;;;13.32;9.82;;;;;;;13.85;67.95;102268.06;4968400;28;113580;-79
2024/02/04 00:08:22;;;;;;;15.57;10.55;;;;;;;13.87;67.73;102276.00;4950711;28;112141;-80
2024/02/04 00:10:50;;;;;;;15.88;10.88;;;;;;;13.86;67.98;102282.25;4969026;28;123678;-80
2024/02/04 00:13:17;;;;;;;16.50;11.60;;;;;;;13.87;68.15;102276.00;4966563;28;123517;-80
2024/02/04 00:15:44;;;;;;;15.80;11.20;;;;;;;13.86;67.94;102260.94;4965723;28;113525;-80
2024/02/04 00:18:11;;;;;;;16.40;11.88;;;;;;;13.86;68.07;102271.59;4965993;28;115270;-80
2024/02/04 00:20:38;;;;;;;17.67;11.93;;;;;;;13.85;68.12;102272.53;4965837;28;122762;-79
2024/02/04 00:23:06;;;;;;;16.52;11.68;;;;;;;13.83;68.15;102265.44;4968563;28;122446;-79
2024/02/04 00:25:33;;;;;;;17.60;12.18;;;;;;;13.85;68.18;102272.53;4968468;28;113385;-80
2024/02/04 00:28:00;;;;;;;18.02;12.45;;;;;;;13.87;68.37;102270.69;4961444;28;113378;-79
2024/02/04 00:30:28;;;;;;;19.60;12.95;;;;;;;13.88;68.30;102277.72;4971304;28;123736;-79
2024/02/04 00:32:55;;;;;;;18.70;12.50;;;;;;;13.88;68.33;102280.38;4971156;28;123931;-79
2024/02/04 00:35:23;;;;;;;19.35;12.13;;;;;;;13.88;68.48;102272.41;4967015;28;114895;-79
2024/02/04 00:37:50;;;;;;;15.63;11.10;;;;;;;13.90;68.32;102281.19;4965482;28;113970;-79
2024/02/04 00:40:17;;;;;;;15.95;10.77;;;;;;;13.89;68.49;102279.47;4969473;28;123654;-79
2024/02/04 00:42:45;;;;;;;13.57;10.15;;;;;;;13.91;68.39;102282.97;4963983;28;123473;-79
2024/02/04 00:45:16;;;;;;;14.00;9.68;;;;;;;13.91;68.45;102277.63;4968351;28;113878;-79
2024/02/04 00:47:43;;;;;;;14.43;10.02;;;;;;;13.91;68.34;102274.97;4956657;28;113093;-78
2024/02/04 00:50:10;;;;;;;15.48;10.50;;;;;;;13.90;68.32;102281.19;4953982;28;123684;-79
2024/02/04 00:52:38;;;;;;;14.45;9.57;;;;;;;13.91;68.56;102277.63;4954897;28;123109;-79
2024/02/04 00:55:06;;;;;;;13.30;8.20;;;;;;;13.92;68.48;102284.69;4960561;28;116086;-79
2024/02/04 00:57:34;;;;;;;11.07;7.65;;;;;;;13.91;68.48;102285.63;4950850;28;114816;-78
2024/02/04 01:00:02;;;;;;;13.27;7.93;;;;;;;13.92;68.56;102284.69;4961778;28;122856;-79
2024/02/04 01:02:29;;;;;;;10.35;7.18;;;;;;;13.93;68.75;102286.44;4961227;28;123706;-78
2024/02/04 01:04:57;;;;;;;12.23;8.23;;;;;;;13.94;68.69;102288.19;4985422;28;112717;-79
2024/02/04 01:07:24;;;;;;;11.90;8.82;;;;;;;13.93;68.72;102292.63;4964897;28;114239;-79
2024/02/04 01:09:51;;;;;;;15.15;8.90;;;;;;;13.95;68.65;102289.91;4955418;28;124173;-79
2024/02/04 01:12:18;;;;;;;13.63;9.02;;;;;;;13.96;68.56;102284.53;4977913;28;124891;-79
2024/02/04 01:14:45;;;;;;;16.77;9.75;;;;;;;13.96;68.62;102281.00;4942389;28;114636;-79
2024/02/04 01:17:12;;;;;;;17.38;10.45;;;;;;;13.97;68.57;102288.06;4964238;28;112580;-79
2024/02/04 01:19:39;;;;;;;18.50;10.20;;;;;;;13.98;68.62;102279.16;4963224;28;123659;-79
2024/02/04 01:22:07;;;;;;;19.58;10.63;;;;;;;13.98;68.61;102280.00;4970344;28;122761;-79
2024/02/04 01:24:34;;;;;;;16.65;10.15;;;;;;;13.99;68.54;102281.78;4967548;28;114997;-79
2024/02/04 01:27:01;;;;;;;20.50;11.18;;;;;;;14.00;68.55;102277.31;4976236;28;115966;-79
2024/02/04 01:29:28;;;;;;;21.67;11.75;;;;;;;14.01;68.81;102274.59;4974297;28;125587;-79
2024/02/04 01:31:56;;;;;;;22.85;11.25;;;;;;;14.02;68.52;102280.78;4984544;28;124261;-79
2024/02/04 01:34:23;;;;;;;18.95;11.23;;;;;;;14.03;68.63;102279.84;4966836;28;114588;-79
2024/02/04 01:36:50;;;;;;;21.27;11.40;;;;;;;14.01;68.50;102279.91;4968548;28;114067;-79
2024/02/04 01:39:17;;;;;;;22.73;11.27;;;;;;;14.02;68.42;102270.13;4947453;28;123173;-79
2024/02/04 01:41:45;;;;;;;23.25;11.95;;;;;;;14.04;68.42;102278.91;4963275;28;123592;-79
2024/02/04 01:44:13;;;;;;;24.15;11.45;;;;;;;14.02;68.53;102275.44;4965953;28;113779;-79
2024/02/04 01:46:40;;;;;;;24.17;11.63;;;;;;;14.03;68.26;102282.50;4965852;28;113806;-79
2024/02/04 01:49:08;;;;;;;21.15;11.20;;;;;;;14.03;68.35;102277.16;4963344;28;122750;-79
2024/02/04 01:51:36;;;;;;;23.50;11.55;;;;;;;14.03;68.29;102277.16;4942559;28;123460;-79
2024/02/04 01:54:04;;;;;;;24.17;11.20;;;;;;;14.03;68.38;102293.16;4955184;28;115256;-79
2024/02/04 01:56:32;;;;;;;18.75;11.43;;;;;;;14.04;68.19;102278.91;4967503;28;113470;-79
2024/02/04 01:58:59;;;;;;;19.30;11.82;;;;;;;14.04;68.17;102284.25;4958560;28;123755;-79
2024/02/04 02:01:27;;;;;;;25.52;11.95;;;;;;;14.05;68.27;102271.78;4975045;28;124491;-80
2024/02/04 02:03:54;;;;;;;26.17;12.02;;;;;;;14.06;68.09;102277.06;4966284;28;114111;-80
2024/02/04 02:06:22;;;;;;;23.33;12.20;;;;;;;14.04;68.22;102281.59;4967737;28;113178;-79
2024/02/04 02:08:50;;;;;;;26.05;12.50;;;;;;;14.03;68.23;102277.16;4962218;28;125859;-79
2024/02/04 02:11:27;;;;;;;20.63;11.95;;;;;;;14.03;68.16;102282.50;4941318;28;123431;-79
2024/02/04 02:14:02;;;;;;;26.15;13.13;;;;;;;14.03;68.11;102279.84;4961045;28;115441;-79
2024/02/04 02:16:32;;;;;;;26.63;12.25;;;;;;;14.03;67.97;102279.84;4943614;28;115033;-80
2024/02/04 02:19:32;;;;;;;25.90;12.43;;;;;;;14.03;68.07;102277.16;4964958;28;122239;-79
2024/02/04 02:22:11;;;;;;;29.30;12.32;;;;;;;14.02;68.01;102291.44;4940332;28;125545;-79
2024/02/04 02:24:41;;;;;;;24.23;11.65;;;;;;;14.03;68.18;102293.16;4960255;28;112860;-80
2024/02/04 02:27:08;;;;;;;23.98;11.38;;;;;;;14.01;68.14;102279.03;4967116;28;112226;-79
2024/02/04 02:29:35;;;;;;;28.20;11.55;;;;;;;14.02;68.30;102280.78;4962535;28;122455;-79
2024/02/04 02:32:03;;;;;;;25.73;10.75;;;;;;;14.02;68.27;102270.13;4959645;28;125570;-79
2024/02/04 02:34:31;;;;;;;19.42;10.65;;;;;;;14.03;68.13;102269.19;4965668;28;114466;-79
2024/02/04 02:37:39;;;;;;;28.02;10.88;;;;;;;14.03;68.21;102266.50;4963319;28;113930;-80
2024/02/04 02:40:23;;;;;;;20.95;10.85;;;;;;;14.01;68.22;102263.03;4949786;28;123342;-79
2024/02/04 02:42:53;;;;;;;21.00;9.95;;;;;;;14.00;68.15;102267.50;4966866;28;123611;-80
2024/02/04 02:45:23;;;;;;;25.05;10.40;;;;;;;14.00;68.19;102261.31;4964102;28;114963;-80
2024/02/04 02:47:51;;;;;;;24.58;10.50;;;;;;;13.99;68.18;102248.91;4962791;28;113758;-79
2024/02/04 02:50:18;;;;;;;25.08;10.55;;;;;;;13.99;68.24;102241.81;4967116;28;124650;-80
2024/02/04 02:52:46;;;;;;;21.73;9.82;;;;;;;13.99;68.21;102248.91;4969676;28;123845;-80
2024/02/04 02:55:13;;;;;;;27.13;10.57;;;;;;;14.01;68.21;102257.72;4980006;28;114657;-80
2024/02/04 02:57:41;;;;;;;24.20;10.27;;;;;;;14.02;68.29;102254.13;4969286;28;113380;-80
2024/02/04 03:00:09;;;;;;;22.50;10.13;;;;;;;14.02;68.09;102248.81;4982376;28;123160;-80
2024/02/04 03:02:36;;;;;;;19.00;9.40;;;;;;;14.02;68.23;102248.81;4987181;28;124726;-79
2024/02/04 03:05:04;;;;;;;18.85;9.82;;;;;;;14.02;68.20;102238.16;4990429;28;114550;-79
2024/02/04 03:07:31;;;;;;;25.40;10.05;;;;;;;14.03;68.07;102229.22;4990833;28;114139;-79
2024/02/04 03:09:59;;;;;;;22.20;10.18;;;;;;;14.04;68.09;102236.28;4984888;28;123208;-80
2024/02/04 03:12:26;;;;;;;24.95;9.70;;;;;;;14.04;68.19;102236.28;4976158;28;123275;-80
2024/02/04 03:14:53;;;;;;;22.48;10.00;;;;;;;14.05;68.09;102238.03;4981478;28;113641;-80
2024/02/04 03:17:22;;;;;;;21.17;9.88;;;;;;;14.05;67.98;102242.50;4974281;28;113792;-79
2024/02/04 03:19:57;;;;;;;23.58;10.18;;;;;;;14.05;68.08;102243.34;4965917;28;122371;-79
2024/02/04 03:22:25;;;;;;;19.95;10.27;;;;;;;14.05;67.98;102238.03;4986796;28;124264;-80
2024/02/04 03:24:52;;;;;;;22.65;9.40;;;;;;;14.06;67.99;102236.25;4975145;28;112769;-80
2024/02/04 03:27:21;;;;;;;17.67;9.35;;;;;;;14.04;68.07;102241.63;4952789;28;113420;-80
2024/02/04 03:29:49;;;;;;;21.85;9.80;;;;;;;14.06;67.89;102252.22;4962265;28;123636;-80
2024/02/04 03:32:16;;;;;;;20.17;9.05;;;;;;;14.05;67.97;102243.34;4968263;28;123151;-80
2024/02/04 03:34:44;;;;;;;19.00;9.20;;;;;;;14.05;67.91;102235.34;4964702;28;114492;-80
2024/02/04 03:37:12;;;;;;;21.52;9.35;;;;;;;14.06;67.83;102231.78;4965548;28;113759;-80
2024/02/04 03:39:39;;;;;;;20.20;8.77;;;;;;;14.08;67.87;102237.06;4984201;28;124277;-80
2024/02/04 03:42:07;;;;;;;19.95;8.85;;;;;;;14.07;67.93;102238.84;4950448;28;124039;-80
2024/02/04 03:44:34;;;;;;;17.25;8.73;;;;;;;14.07;67.71;102241.53;4969673;28;113342;-80
2024/02/04 03:47:03;;;;;;;20.05;8.55;;;;;;;14.07;67.70;102244.19;4966803;28;114470;-80
2024/02/04 03:49:31;;;;;;;24.92;9.50;;;;;;;14.06;67.74;102245.09;4968064;28;124026;-80
2024/02/04 03:51:58;;;;;;;13.88;7.95;;;;;;;14.08;67.78;102251.22;4964101;28;123763;-80
2024/02/04 03:54:25;;;;;;;20.48;8.38;;;;;;;14.07;67.72;102252.19;4983432;28;114834;-80
2024/02/04 03:56:53;;;;;;;20.45;8.75;;;;;;;14.06;67.74;102254.91;4961130;28;115242;-80
2024/02/04 03:59:20;;;;;;;16.33;7.68;;;;;;;14.05;67.75;102254.00;4942926;28;124181;-80
2024/02/04 04:01:49;;;;;;;19.55;7.35;;;;;;;14.05;67.60;102248.69;4969564;28;124105;-80
2024/02/04 04:04:17;;;;;;;16.00;7.65;;;;;;;14.05;67.54;102243.34;4970910;28;114512;-79
2024/02/04 04:06:45;;;;;;;14.05;7.68;;;;;;;14.04;67.66;102254.94;4968352;28;112496;-79
2024/02/04 04:09:12;;;;;;;16.88;7.22;;;;;;;14.03;67.43;102261.19;4975837;28;123336;-79
2024/02/04 04:11:40;;;;;;;17.83;7.75;;;;;;;14.04;67.49;102256.75;4968357;28;124949;-79
2024/02/04 04:14:07;;;;;;;17.80;7.32;;;;;;;14.05;67.54;102264.66;4967983;28;114491;-80
2024/02/04 04:16:34;;;;;;;15.43;7.75;;;;;;;14.05;67.40;102285.97;4966460;28;113773;-79
2024/02/04 04:19:02;;;;;;;19.70;6.90;;;;;;;14.05;67.31;102283.31;4968183;28;123991;-79
2024/02/04 04:21:29;;;;;;;18.85;7.60;;;;;;;14.04;67.15;102278.91;4963567;28;124891;-80
2024/02/04 04:23:56;;;;;;;18.08;6.90;;;;;;;14.04;67.29;102278.91;4968876;28;112242;-79
2024/02/04 04:26:24;;;;;;;15.18;6.68;;;;;;;14.03;67.06;102258.53;4966488;28;115036;-79
2024/02/04 04:28:51;;;;;;;16.80;7.15;;;;;;;14.03;67.28;102245.19;4966127;28;125235;-79
2024/02/04 04:31:18;;;;;;;18.92;7.13;;;;;;;14.04;67.31;102238.09;4946545;28;122372;-80
2024/02/04 04:33:45;;;;;;;13.35;6.55;;;;;;;14.01;67.17;102231.06;4946323;28;113507;-79
2024/02/04 04:36:13;;;;;;;16.13;6.80;;;;;;;14.02;67.20;102230.16;4964220;28;114128;-79
2024/02/04 04:38:40;;;;;;;19.80;7.65;;;;;;;14.01;67.25;102231.06;4959606;28;123743;-79
2024/02/04 04:41:07;;;;;;;15.50;6.95;;;;;;;14.00;67.20;102224.03;4942339;28;123303;-80
2024/02/04 04:43:38;;;;;;;14.85;7.45;;;;;;;13.99;67.16;102232.94;4963698;28;114657;-79
2024/02/04 04:46:05;;;;;;;17.02;7.05;;;;;;;13.98;67.11;102231.22;4968901;28;115393;-79
2024/02/04 04:48:32;;;;;;;20.48;8.18;;;;;;;13.99;67.00;102232.94;4962895;28;124021;-80
2024/02/04 04:51:00;;;;;;;21.92;7.68;;;;;;;13.98;67.03;102220.56;4958220;28;123681;-80
2024/02/04 04:53:27;;;;;;;18.17;8.43;;;;;;;13.97;67.13;102213.47;4954341;28;113502;-80
2024/02/04 04:55:54;;;;;;;17.13;8.27;;;;;;;13.98;67.03;102215.22;4957714;28;114608;-80
2024/02/04 04:58:21;;;;;;;19.02;8.40;;;;;;;13.97;67.18;102217.00;4946919;28;123305;-80
2024/02/04 05:00:48;;;;;;;17.95;8.10;;;;;;;13.97;67.10;102224.13;4951546;28;123588;-80
2024/02/04 05:03:16;;;;;;;20.40;9.20;;;;;;;13.97;67.15;102218.78;4952117;28;113074;-80
2024/02/04 05:05:43;;;;;;;22.02;8.68;;;;;;;13.97;67.09;102210.81;4962264;28;114400;-80
2024/02/04 05:08:12;;;;;;;20.52;9.48;;;;;;;13.95;67.18;102200.19;4965933;28;124207;-80
2024/02/04 05:10:40;;;;;;;21.98;9.70;;;;;;;13.94;67.20;102194.97;4979536;28;123609;-80
2024/02/04 05:13:07;;;;;;;25.13;10.32;;;;;;;13.94;66.98;102208.28;4980028;28;113624;-80
2024/02/04 05:15:35;;;;;;;20.88;9.98;;;;;;;13.92;67.23;102194.13;4964064;28;113283;-79
2024/02/04 05:18:04;;;;;;;19.48;9.95;;;;;;;13.92;67.25;102202.09;4963515;28;124038;-80
2024/02/04 05:20:31;;;;;;;21.10;10.68;;;;;;;13.91;67.22;102190.59;4968679;28;125346;-80
2024/02/04 05:22:58;;;;;;;22.65;10.25;;;;;;;13.93;67.35;102185.22;4965864;28;114274;-79
2024/02/04 05:25:26;;;;;;;20.30;10.52;;;;;;;13.92;67.24;102188.78;4964477;28;114066;-79
2024/02/04 05:27:53;;;;;;;17.80;7.90;;;;;;;13.92;67.34;102188.78;4962891;28;123994;-79
2024/02/04 05:30:20;;;;;;;22.42;11.20;;;;;;;13.91;67.17;102184.41;4969298;28;123892;-79
2024/02/04 05:32:48;;;;;;;16.55;7.32;;;;;;;13.89;67.23;102186.25;4970443;28;113751;-80
2024/02/04 05:35:15;;;;;;;23.63;11.68;;;;;;;13.89;67.30;102188.94;4977991;28;114092;-80
2024/02/04 05:37:42;;;;;;;17.55;9.80;;;;;;;13.89;67.33;102194.25;4965123;28;124613;-80
2024/02/04 05:40:10;;;;;;;17.38;6.57;;;;;;;13.87;67.46;102196.97;4962472;28;122750;-80
2024/02/04 05:42:37;;;;;;;18.63;9.43;;;;;;;13.86;67.43;102189.03;4980808;28;113422;-79
2024/02/04 05:45:05;;;;;;;17.30;9.07;;;;;;;13.86;67.43;102181.03;4958515;28;113191;-80
2024/02/04 05:47:33;;;;;;;16.35;8.77;;;;;;;13.86;67.54;102189.88;4968435;28;123699;-80
2024/02/04 05:50:00;;;;;;;18.10;8.30;;;;;;;13.87;67.69;102185.47;4975794;28;123495;-80
2024/02/04 05:52:28;;;;;;;18.05;8.20;;;;;;;13.87;67.49;102182.78;4972806;28;112131;-79
2024/02/04 05:54:55;;;;;;;19.15;8.05;;;;;;;13.87;67.70;102201.44;4979443;28;115109;-79
2024/02/04 05:57:22;;;;;;;17.63;7.88;;;;;;;13.86;67.55;102199.69;4966610;28;123476;-79
2024/02/04 05:59:52;;;;;;;15.15;7.75;;;;;;;13.87;67.70;102196.13;4961467;28;126467;-80
2024/02/04 06:02:19;;;;;;;13.70;7.22;;;;;;;13.88;67.84;102184.50;4962744;28;114147;-79
2024/02/04 06:04:48;;;;;;;15.43;7.70;;;;;;;13.89;67.62;102183.59;4973148;28;114380;-80
2024/02/04 06:07:15;;;;;;;16.98;7.55;;;;;;;13.89;67.69;102184.47;4962816;28;124405;-80
2024/02/04 06:09:43;;;;;;;12.93;6.50;;;;;;;13.89;67.77;102179.13;4977553;28;122917;-81
2024/02/04 06:12:10;;;;;;;13.25;6.53;;;;;;;13.90;67.60;102174.66;4969861;28;114293;-80
2024/02/04 06:14:39;;;;;;;15.55;7.03;;;;;;;13.91;67.67;102176.41;4963681;28;112561;-80
2024/02/04 06:17:10;;;;;;;13.18;6.40;;;;;;;13.92;67.68;102167.47;4950085;28;123241;-79
2024/02/04 06:19:37;;;;;;;15.02;6.10;;;;;;;13.93;67.70;102174.56;4961430;28;124591;-80
2024/02/04 06:22:06;;;;;;;12.75;6.20;;;;;;;13.92;67.89;102181.69;4973496;28;114553;-80
2024/02/04 06:24:33;;;;;;;10.40;5.47;;;;;;;13.94;67.55;102176.31;4969790;28;116013;-80
2024/02/04 06:27:01;;;;;;;14.05;6.85;;;;;;;13.94;67.42;102165.66;4956239;28;123528;-80
2024/02/04 06:29:28;;;;;;;15.52;6.50;;;;;;;13.96;67.47;102163.81;4962881;28;123210;-80
2024/02/04 06:31:56;;;;;;;13.98;6.38;;;;;;;13.95;67.53;102162.91;4954375;28;113994;-80
2024/02/04 06:34:23;;;;;;;14.23;6.28;;;;;;;13.96;67.41;102158.47;4967473;28;113876;-80
2024/02/04 06:36:50;;;;;;;13.02;6.70;;;;;;;13.96;67.43;102153.16;4952838;28;124129;-80
2024/02/04 06:39:17;;;;;;;8.93;5.72;;;;;;;13.95;67.45;102156.72;4958597;28;123087;-80
2024/02/04 06:41:45;;;;;;;10.23;5.93;;;;;;;13.96;67.59;102142.50;4960751;28;115028;-80
2024/02/04 06:44:12;;;;;;;12.23;6.18;;;;;;;13.97;67.45;102144.22;4967930;28;113068;-80
2024/02/04 06:46:39;;;;;;;10.18;6.38;;;;;;;13.98;67.48;102140.66;4961616;28;124102;-80
2024/02/04 06:49:06;;;;;;;12.55;6.60;;;;;;;13.98;67.21;102151.28;4948461;28;125768;-80
2024/02/04 06:51:34;;;;;;;12.15;6.97;;;;;;;13.97;67.26;102150.41;4959608;28;114950;-80
2024/02/04 06:54:01;;;;;;;11.18;7.10;;;;;;;13.98;67.43;102161.94;4979277;28;113694;-79
2024/02/04 06:56:28;;;;;;;11.98;6.93;;;;;;;13.96;67.20;102158.47;4971240;28;124473;-80
2024/02/04 06:58:55;;;;;;;10.73;6.38;;;;;;;13.96;67.20;102158.47;4962921;28;124055;-79
2024/02/04 07:01:24;;;;;;;11.50;6.53;;;;;;;13.94;67.25;102165.66;4961999;28;113391;-80
2024/02/04 07:03:51;;;;;;;10.80;6.75;;;;;;;13.94;67.29;102177.19;4969279;28;114296;-80
2024/02/04 07:06:19;;;;;;;9.82;6.30;;;;;;;13.94;67.39;102171.00;4967560;28;123800;-80
2024/02/04 07:08:46;;;;;;;13.43;6.47;;;;;;;13.93;67.37;102179.91;4966345;28;124888;-80
2024/02/04 07:11:13;;;;;;;11.32;6.22;;;;;;;13.92;67.41;102184.34;4966414;28;114412;-80
2024/02/04 07:13:41;;;;;;;12.77;5.90;;;;;;;13.93;67.29;102187.88;4970756;28;114601;-83
2024/02/04 07:16:08;;;;;;;8.75;5.05;;;;;;;13.91;67.36;102177.28;4967253;28;124468;-83
2024/02/04 07:18:35;;;;;;;5.80;3.50;;;;;;;13.92;67.30;102183.47;4966032;28;123386;-83
2024/02/04 07:21:03;;;;;;;6.43;3.25;;;;;;;13.91;67.32;102187.06;4962517;28;113633;-82
2024/02/04 07:23:30;;;;;;;7.43;3.30;;;;;;;13.90;67.24;102201.31;4965773;28;112999;-83
2024/02/04 07:25:57;;;;;;;7.57;3.13;;;;;;;13.90;67.37;102193.31;4952411;28;123666;-82
2024/02/04 07:28:25;;;;;;;6.00;3.08;;;;;;;13.90;67.30;102185.31;4982242;28;124508;-82
2024/02/04 07:30:53;;;;;;;6.95;3.08;;;;;;;13.90;67.24;102201.31;4972966;28;114245;-82
2024/02/04 07:33:20;;;;;;;7.75;3.53;;;;;;;13.90;67.18;102180.88;4966431;28;115469;-81
2024/02/04 07:35:47;;;;;;;6.18;2.95;;;;;;;13.90;67.32;102175.56;4964696;28;123799;-84
2024/02/04 07:38:15;;;;;;;4.97;2.83;;;;;;;13.91;67.22;102181.75;4963363;28;125423;-84
2024/02/04 07:40:42;;;;;;;4.68;2.97;;;;;;;13.91;67.24;102181.75;4968897;28;112937;-83
2024/02/04 07:43:09;;;;;;;6.78;3.22;;;;;;;13.91;67.30;102179.09;4970658;28;115952;-83
2024/02/04 07:45:37;;;;;;;10.20;3.75;;;;;;;13.91;67.25;102184.41;4966754;28;124765;-84
2024/02/04 07:48:05;;;;;;;6.78;4.07;;;;;;;13.91;67.31;102171.97;4955161;28;125120;-83
2024/02/04 07:50:32;;;;;;;6.88;3.53;;;;;;;13.92;67.17;102167.47;4957479;28;116476;-83
2024/02/04 07:52:59;;;;;;;6.85;3.40;;;;;;;13.91;67.07;102163.09;4956592;28;115172;-83
2024/02/04 07:55:26;;;;;;;7.95;3.25;;;;;;;13.90;67.26;102156.03;4953915;28;126717;-84
2024/02/04 07:57:54;;;;;;;5.38;3.42;;;;;;;13.91;67.20;102157.78;4970140;28;125106;-83
2024/02/04 08:00:21;;;;;;;9.85;4.05;;;;;;;13.90;67.18;102159.59;4985052;28;113901;-83
2024/02/04 08:02:48;;;;;;;8.10;4.18;;;;;;;13.90;67.22;102153.38;4963255;28;115895;-83
2024/02/04 08:05:16;;;;;;;6.93;3.97;;;;;;;13.92;67.49;102162.16;4984655;28;123808;-83
2024/02/04 08:07:43;;;;;;;10.65;4.05;;;;;;;13.91;67.28;102166.63;4955094;28;124693;-83
2024/02/04 08:10:10;;;;;;;6.40;3.85;;;;;;;13.93;67.25;102166.56;4967144;28;115154;-83
2024/02/04 08:12:38;;;;;;;7.65;4.03;;;;;;;13.92;67.25;102162.16;4957906;28;112921;-83
2024/02/04 08:15:06;;;;;;;7.47;3.90;;;;;;;13.92;67.39;102151.50;4979593;28;124805;-83
2024/02/04 08:17:33;;;;;;;6.68;3.90;;;;;;;13.94;67.39;102149.69;5006383;28;125238;-83
2024/02/04 08:20:00;;;;;;;6.43;3.70;;;;;;;13.95;67.29;102151.41;4989702;28;117160;-82
2024/02/04 08:22:28;;;;;;;6.38;3.83;;;;;;;13.95;67.26;102146.94;4989700;28;115142;-83
2024/02/04 08:24:55;;;;;;;7.32;3.92;;;;;;;13.97;67.45;102144.22;4989725;28;123484;-82
2024/02/04 08:27:22;;;;;;;6.38;3.80;;;;;;;13.97;67.18;102133.56;4992143;28;123452;-83
2024/02/04 08:29:50;;;;;;;7.07;3.70;;;;;;;13.98;67.26;102137.97;4988823;28;114351;-80
2024/02/04 08:32:17;;;;;;;7.68;3.47;;;;;;;13.98;67.32;102135.31;4980827;28;113279;-79
2024/02/04 08:34:44;;;;;;;7.30;3.95;;;;;;;13.98;67.33;102143.31;4972931;28;123300;-80
2024/02/04 08:37:11;;;;;;;6.78;3.67;;;;;;;13.97;67.29;102138.88;4988520;28;124097;-80
2024/02/04 08:39:38;;;;;;;8.90;3.72;;;;;;;13.99;67.41;102145.03;4977015;28;113613;-81
2024/02/04 08:42:06;;;;;;;7.65;3.42;;;;;;;13.98;67.49;102141.50;4963393;28;112952;-81
2024/02/04 08:44:33;;;;;;;9.32;3.55;;;;;;;14.00;67.11;102138.78;4966339;28;122722;-81
2024/02/04 08:47:09;;;;;;;9.52;3.60;;;;;;;14.01;67.34;102156.47;4951910;28;122005;-83
2024/02/04 08:49:37;;;;;;;7.65;3.75;;;;;;;14.01;67.37;102140.50;4969365;28;115070;-83
2024/02/04 08:52:05;;;;;;;7.18;3.20;;;;;;;14.01;67.40;102156.47;4958256;28;114236;-82
2024/02/04 08:54:33;;;;;;;4.97;3.40;;;;;;;14.02;67.31;102152.91;4961314;28;122578;-82
2024/02/04 08:57:00;;;;;;;8.10;3.70;;;;;;;14.03;67.39;102154.63;4960841;28;124175;-83
2024/02/04 08:59:28;;;;;;;6.45;3.60;;;;;;;14.05;67.50;102150.09;4963049;28;114747;-83
2024/02/04 09:01:55;;;;;;;7.35;3.38;;;;;;;14.06;67.36;102154.53;4969672;28;112527;-83
2024/02/04 09:04:22;;;;;;;8.13;3.33;;;;;;;14.06;67.31;102154.53;4980756;28;123543;-82
2024/02/04 09:06:50;;;;;;;5.53;3.08;;;;;;;14.07;67.35;102145.63;4963459;28;124489;-82
2024/02/04 09:09:17;;;;;;;8.40;3.30;;;;;;;14.07;67.31;102153.59;4964160;28;114830;-81
2024/02/04 09:11:44;;;;;;;6.50;3.40;;;;;;;14.08;67.48;102163.31;4966022;28;113512;-82
2024/02/04 09:14:12;;;;;;;7.55;3.63;;;;;;;14.09;67.22;102161.50;4978475;28;123869;-82
2024/02/04 09:16:39;;;;;;;6.75;3.50;;;;;;;14.11;67.31;102157.88;4951911;28;122189;-82
2024/02/04 09:19:06;;;;;;;6.28;3.50;;;;;;;14.11;67.43;102168.53;4964466;28;115133;-82
2024/02/04 09:21:34;;;;;;;6.78;2.88;;;;;;;14.12;67.12;102146.28;4965843;28;114099;-82
2024/02/04 09:24:01;;;;;;;6.70;3.28;;;;;;;14.13;67.35;102166.69;4973416;28;123232;-83
2024/02/04 09:26:29;;;;;;;6.07;3.15;;;;;;;14.13;67.45;102166.69;4953634;28;124459;-83
2024/02/04 09:28:56;;;;;;;5.15;2.97;;;;;;;14.13;67.49;102155.16;4961774;28;114490;-82
2024/02/04 09:31:23;;;;;;;5.03;3.10;;;;;;;14.14;67.53;102154.22;4968451;28;114508;-83
2024/02/04 09:33:51;;;;;;;4.70;2.95;;;;;;;14.16;67.49;102161.22;4970534;28;123820;-83
2024/02/04 09:36:18;;;;;;;5.05;2.85;;;;;;;14.18;67.47;102148.72;4969970;28;124993;-83
2024/02/04 09:38:46;;;;;;;5.68;2.80;;;;;;;14.21;67.46;102153.91;4981893;28;115786;-82
2024/02/04 09:41:13;;;;;;;5.53;2.60;;;;;;;14.24;67.42;102157.38;4972124;28;115286;-83
2024/02/04 09:43:41;;;;;;;5.45;2.85;;;;;;;14.27;67.45;102151.94;4952824;28;124022;-83
2024/02/04 09:46:08;;;;;;;5.68;3.10;;;;;;;14.30;67.49;102151.84;4964864;28;122210;-83
2024/02/04 09:48:37;;;;;;;7.15;2.92;;;;;;;14.33;67.27;102146.38;4974822;28;114526;-82
2024/02/04 09:51:06;;;;;;;4.70;2.35;;;;;;;14.36;67.40;102146.25;4953263;28;113180;-83
2024/02/04 09:53:35;;;;;;;5.55;2.63;;;;;;;14.39;67.40;102156.78;4967582;28;123539;-83
2024/02/04 09:56:06;;;;;;;5.63;1.92;;;;;;;14.42;67.27;102156.66;4965430;28;122676;-82
2024/02/04 09:58:33;;;;;;;5.30;2.20;;;;;;;14.43;67.10;102153.09;4960710;28;113850;-82
2024/02/04 10:01:02;;;;;;;4.13;2.25;;;;;;;14.45;67.41;102151.22;4953387;28;114923;-83
2024/02/04 10:03:30;;;;;;;5.53;2.20;;;;;;;14.47;67.21;102149.34;4949136;28;125597;-83
2024/02/04 10:05:58;;;;;;;5.15;1.92;;;;;;;14.49;67.31;102152.81;4968234;28;124306;-83
2024/02/04 10:08:25;;;;;;;4.15;2.10;;;;;;;14.51;67.13;102156.28;4967061;28;115110;-83
2024/02/04 10:10:54;;;;;;;7.30;2.03;;;;;;;14.52;67.06;102152.72;4968126;28;114002;-84
2024/02/04 10:13:24;;;;;;;3.95;2.00;;;;;;;14.53;67.27;102159.75;4968483;28;125575;-83
2024/02/04 10:15:52;;;;;;;3.78;2.17;;;;;;;14.55;67.07;102173.91;4980602;28;122544;-83
2024/02/04 10:18:19;;;;;;;3.40;1.75;;;;;;;14.55;67.00;102163.22;4951656;28;115258;-82
2024/02/04 10:20:47;;;;;;;3.05;1.77;;;;;;;14.57;66.97;102161.41;4968530;28;113933;-83
2024/02/04 10:23:14;;;;;;;3.08;1.70;;;;;;;14.58;67.03;102168.47;4965360;28;126159;-83
2024/02/04 10:25:42;;;;;;;4.63;1.70;;;;;;;14.60;66.93;102171.09;4962554;28;124288;-82
2024/02/04 10:28:10;;;;;;;3.05;1.60;;;;;;;14.63;66.93;102170.09;4950123;28;115926;-83
2024/02/04 10:30:39;;;;;;;3.65;1.38;;;;;;;14.65;67.00;102170.91;4951369;28;116531;-82
2024/02/04 10:33:07;;;;;;;2.70;1.02;;;;;;;14.67;66.90;102179.69;4980686;28;124974;-81
2024/02/04 10:35:34;;;;;;;2.85;1.20;;;;;;;14.67;66.77;102177.03;4967720;28;123896;-81
2024/02/04 10:38:01;;;;;;;2.05;1.10;;;;;;;14.64;66.80;102177.19;4979624;28;114895;-80
2024/02/04 10:40:29;;;;;;;2.47;0.90;;;;;;;14.60;66.51;102179.94;4942694;28;114396;-82
2024/02/04 10:43:03;;;;;;;2.55;0.98;;;;;;;14.56;66.54;102180.97;4948776;28;123468;-81
2024/02/04 10:45:32;;;;;;;1.55;0.90;;;;;;;14.51;66.58;102177.63;4966833;28;124865;-82
2024/02/04 10:48:02;;;;;;;2.17;0.80;;;;;;;14.48;66.73;102175.06;4961145;28;115073;-82
2024/02/04 10:50:34;;;;;;;1.80;0.80;;;;;;;14.44;66.59;102170.78;4952131;28;115290;-82
2024/02/04 10:53:07;;;;;;;1.75;0.88;;;;;;;14.41;66.68;102154.94;4968878;28;124533;-82
2024/02/04 10:55:40;;;;;;;3.92;1.10;;;;;;;14.41;66.90;102161.13;4969563;28;124760;-82
2024/02/04 10:58:08;;;;;;;3.95;1.50;;;;;;;14.42;66.84;102162.00;4970548;28;115322;-82
2024/02/04 11:00:36;;;;;;;2.90;1.60;;;;;;;14.41;67.05;102161.13;4953190;28;114361;-82
2024/02/04 11:03:05;;;;;;;2.85;2.10;;;;;;;14.39;67.09;102156.78;4956561;28;124156;-82
2024/02/04 11:05:35;;;;;;;3.22;2.20;;;;;;;14.39;67.00;102162.09;4951545;28;125654;-83
2024/02/04 11:08:04;;;;;;;3.90;2.17;;;;;;;14.38;66.97;102155.91;4961768;28;114191;-82
2024/02/04 11:10:32;;;;;;;3.10;2.10;;;;;;;14.38;66.98;102147.06;4974765;28;113704;-83
2024/02/04 11:13:02;;;;;;;3.20;2.22;;;;;;;14.38;67.22;102139.91;4968652;28;123493;-82